KFBG/FBG METAR and TAF weather

Enter ICAO airport designator
Station Type Date Time Source
KFBG METAR 2022/06/27 06:56 UTC NOAA

KFBG 270656Z AUTO 21006KT 10SM CLR 24/20 A3007 RMK AO2 SLP183 T02400197 $


Station Type Date Time Source
KFBG Decoded METAR 2022/06/27 06:56 UTC NOAA

Fort Bragg / Simmons Army Airfield, NC, United States (KFBG) 35-08N 078-56W 74M
Jun 27, 2022 - 02:56 AM EDT / 2022.06.27 0656 UTC
Wind: from the SSW (210 degrees) at 7 MPH (6 KT):0
Visibility: 10 mile(s):0
Sky conditions: clear
Temperature: 75.2 F (24.0 C)
Dew Point: 67.5 F (19.7 C)
Relative Humidity: 76%
Pressure (altimeter): 30.07 in. Hg (1018 hPa)
ob: KFBG 270656Z AUTO 21006KT 10SM CLR 24/20 A3007 RMK AO2 SLP183 T02400197
cycle: 7

Station Type Date Time Source
KFBG TAF 2022/06/27 01:07 UTC NOAA

TAF KFBG 270100Z 2701/2807 16006KT 9999 BKN065 QNH3000INS
BECMG 2713/2714 23010G15KT 9999 FEW030 QNH3007INS
BECMG 2723/2724 VRB06KT 9999 BKN018 OVC026 QNH3002INS
TEMPO 2800/2807 26012G20KT 8000 -TSRA OVC018CB TX35/2721Z TN22/2710Z

Example: see airport list